createdAt,value
2023-03-13T00:00:29.747Z,10.13
2023-03-13T00:02:58.549Z,10.93
2023-03-13T00:05:28.916Z,11.57
2023-03-13T00:07:57.997Z,12.90
2023-03-13T00:10:28.738Z,11.47
2023-03-13T00:13:01.890Z,10.60
2023-03-13T00:15:30.880Z,10.97
2023-03-13T00:18:01.479Z,11.33
2023-03-13T00:20:32.171Z,10.93
2023-03-13T00:23:01.977Z,11.73
2023-03-13T00:25:31.181Z,11.77
2023-03-13T00:27:59.937Z,10.67
2023-03-13T00:30:29.233Z,10.77
2023-03-13T00:32:58.252Z,10.70
2023-03-13T00:35:38.033Z,11.80
2023-03-13T00:38:10.699Z,11.40
2023-03-13T00:40:39.672Z,14.43
2023-03-13T00:43:08.748Z,11.63
2023-03-13T00:45:40.357Z,13.10
2023-03-13T00:48:09.235Z,13.87
2023-03-13T00:50:39.527Z,14.17
2023-03-13T00:53:13.776Z,11.40
2023-03-13T00:55:56.109Z,12.47
2023-03-13T00:58:32.745Z,10.93
2023-03-13T01:01:10.602Z,10.47
2023-03-13T01:03:40.899Z,13.13
2023-03-13T01:06:12.839Z,10.27
2023-03-13T01:08:43.725Z,13.57
2023-03-13T01:11:14.420Z,11.27
2023-03-13T01:13:43.548Z,14.17
2023-03-13T01:16:14.747Z,10.37
2023-03-13T01:18:46.039Z,13.13
2023-03-13T01:21:19.242Z,12.27
2023-03-13T01:23:48.497Z,10.93
2023-03-13T01:26:17.630Z,10.90
2023-03-13T01:28:46.969Z,13.13
2023-03-13T01:31:17.784Z,11.00
2023-03-13T01:33:47.568Z,12.60
2023-03-13T01:36:39.782Z,11.33
2023-03-13T01:39:09.146Z,11.43
2023-03-13T01:41:39.514Z,12.80
2023-03-13T01:44:19.800Z,11.03
2023-03-13T01:46:48.738Z,13.17
2023-03-13T01:49:20.892Z,9.83
2023-03-13T01:51:53.786Z,12.57
2023-03-13T01:54:27.252Z,9.60
2023-03-13T01:56:59.969Z,9.87
2023-03-13T01:59:33.630Z,9.47
2023-03-13T02:02:04.092Z,10.47
2023-03-13T02:04:37.639Z,10.50
2023-03-13T02:07:14.570Z,10.30
2023-03-13T02:09:45.270Z,10.70
2023-03-13T02:12:16.822Z,9.97
2023-03-13T02:14:47.758Z,12.87
2023-03-13T02:17:18.383Z,10.80
2023-03-13T02:19:48.849Z,11.73
2023-03-13T02:22:29.604Z,9.60
2023-03-13T02:25:03.746Z,9.83
2023-03-13T02:27:34.127Z,10.70
2023-03-13T02:30:04.238Z,9.80
2023-03-13T02:32:33.572Z,11.13
2023-03-13T02:35:07.596Z,9.67
2023-03-13T02:37:38.085Z,9.27
2023-03-13T02:40:10.704Z,9.50
2023-03-13T02:42:44.655Z,11.40
2023-03-13T02:45:18.558Z,9.87
2023-03-13T02:47:47.356Z,12.43
2023-03-13T02:50:16.437Z,10.20
2023-03-13T02:52:51.162Z,13.80
2023-03-13T02:55:27.768Z,9.40
2023-03-13T02:57:58.506Z,11.37
2023-03-13T03:00:27.831Z,9.93
2023-03-13T03:02:56.714Z,10.20
2023-03-13T03:05:26.117Z,10.37
2023-03-13T03:07:55.163Z,10.60
2023-03-13T03:10:23.982Z,11.10
2023-03-13T03:12:52.844Z,12.77
2023-03-13T03:15:26.269Z,9.80
2023-03-13T03:17:54.964Z,11.57
2023-03-13T03:20:23.850Z,10.73
2023-03-13T03:22:52.689Z,14.87
2023-03-13T03:25:24.664Z,10.57
2023-03-13T03:27:53.754Z,13.30
2023-03-13T03:30:24.168Z,11.63
2023-03-13T03:32:52.981Z,13.67
2023-03-13T03:35:21.953Z,11.83
2023-03-13T03:37:50.820Z,12.17
2023-03-13T03:40:21.420Z,10.77
2023-03-13T03:42:50.285Z,14.37
2023-03-13T03:45:19.308Z,11.80
2023-03-13T03:47:49.442Z,13.80
2023-03-13T03:50:18.400Z,11.70
2023-03-13T03:52:47.232Z,13.93
2023-03-13T03:55:16.047Z,12.40
2023-03-13T03:57:44.847Z,13.93
2023-03-13T04:00:16.145Z,11.73
2023-03-13T04:02:46.856Z,13.50
2023-03-13T04:05:17.203Z,11.90
2023-03-13T04:07:45.937Z,16.27
2023-03-13T04:10:16.652Z,13.53
2023-03-13T04:12:45.596Z,14.57
2023-03-13T04:15:14.461Z,12.90
2023-03-13T04:17:43.304Z,16.20
2023-03-13T04:20:14.437Z,12.17
2023-03-13T04:22:44.954Z,16.03
2023-03-13T04:25:13.859Z,12.63
2023-03-13T04:27:42.573Z,13.70
2023-03-13T04:30:12.600Z,13.30
2023-03-13T04:32:41.660Z,15.70
2023-03-13T04:35:10.993Z,12.97
2023-03-13T04:37:39.913Z,15.03
2023-03-13T04:40:14.212Z,13.30
2023-03-13T04:42:45.277Z,16.33
2023-03-13T04:45:14.489Z,12.73
2023-03-13T04:47:44.720Z,13.63
2023-03-13T04:50:15.700Z,12.10
2023-03-13T04:52:49.508Z,14.37
2023-03-13T04:55:20.043Z,12.50
2023-03-13T04:57:48.757Z,16.87
2023-03-13T05:00:18.122Z,14.03
2023-03-13T05:02:46.912Z,16.47
2023-03-13T05:05:15.902Z,15.47
2023-03-13T05:07:47.728Z,17.03
2023-03-13T05:10:16.655Z,14.90
2023-03-13T05:12:49.691Z,17.67
2023-03-13T05:15:18.767Z,15.20
2023-03-13T05:17:49.367Z,18.43
2023-03-13T05:20:18.284Z,14.40
2023-03-13T05:22:47.143Z,17.73
2023-03-13T05:25:18.090Z,15.40
2023-03-13T05:27:47.221Z,18.13
2023-03-13T05:30:19.666Z,15.23
2023-03-13T05:32:51.136Z,16.40
2023-03-13T05:35:19.989Z,13.90
2023-03-13T05:37:50.306Z,15.97
2023-03-13T05:40:19.534Z,14.57
2023-03-13T05:42:48.607Z,16.03
2023-03-13T05:45:19.324Z,18.07
2023-03-13T05:47:47.998Z,18.70
2023-03-13T05:50:17.065Z,16.47
2023-03-13T05:52:45.830Z,16.97
2023-03-13T05:55:14.591Z,14.07
2023-03-13T05:57:46.725Z,15.37
2023-03-13T06:00:17.057Z,14.83
2023-03-13T06:02:47.281Z,17.00
2023-03-13T06:05:16.142Z,13.17
2023-03-13T06:07:44.941Z,16.83
2023-03-13T06:10:15.195Z,12.73
2023-03-13T06:12:44.195Z,15.40
2023-03-13T06:15:14.670Z,14.67
2023-03-13T06:17:43.673Z,16.33
2023-03-13T06:20:14.899Z,12.93
2023-03-13T06:23:11.534Z,14.87
2023-03-13T06:25:40.402Z,13.33
2023-03-13T06:28:09.401Z,13.57
2023-03-13T06:30:38.258Z,13.30
2023-03-13T06:33:07.246Z,14.37
2023-03-13T06:35:49.471Z,15.20
2023-03-13T06:38:26.764Z,13.27
2023-03-13T06:40:56.036Z,13.40
2023-03-13T06:43:25.643Z,12.67
2023-03-13T06:45:54.652Z,13.13
2023-03-13T06:48:25.547Z,11.53
2023-03-13T06:50:56.738Z,14.63
2023-03-13T06:53:31.610Z,14.23
2023-03-13T06:56:03.130Z,14.53
2023-03-13T06:58:33.122Z,13.53
2023-03-13T07:01:06.993Z,13.40
2023-03-13T07:03:36.130Z,13.90
2023-03-13T07:06:09.027Z,13.17
2023-03-13T07:08:38.456Z,17.07
2023-03-13T07:11:09.383Z,13.60
2023-03-13T07:13:38.604Z,14.40
2023-03-13T07:16:09.233Z,14.03
2023-03-13T07:18:38.531Z,13.70
2023-03-13T07:21:10.841Z,12.93
2023-03-13T07:23:39.945Z,12.47
2023-03-13T07:26:19.000Z,12.53
2023-03-13T07:28:50.990Z,13.43
2023-03-13T07:31:21.756Z,11.77
2023-03-13T07:33:52.579Z,15.50
2023-03-13T07:36:23.093Z,12.20
2023-03-13T07:38:52.757Z,15.40
2023-03-13T07:41:26.944Z,11.23
2023-03-13T07:43:55.977Z,13.03
2023-03-13T07:46:24.975Z,12.83
2023-03-13T07:48:58.216Z,13.00
2023-03-13T07:51:42.586Z,12.63
2023-03-13T07:54:12.255Z,12.13
2023-03-13T07:56:41.529Z,13.20
2023-03-13T07:59:11.540Z,13.17
2023-03-13T08:01:40.965Z,12.07
2023-03-13T08:04:16.496Z,13.07
2023-03-13T08:06:47.083Z,14.53
2023-03-13T08:12:13.899Z,12.73
2023-03-13T08:14:44.020Z,15.30
2023-03-13T08:17:14.717Z,12.13
2023-03-13T08:19:45.197Z,14.37
2023-03-13T08:22:23.435Z,12.17
2023-03-13T08:24:52.320Z,10.83
2023-03-13T08:30:15.095Z,12.20
2023-03-13T08:32:47.257Z,13.30
2023-03-13T08:35:20.677Z,12.77
2023-03-13T08:37:57.168Z,13.77
2023-03-13T08:40:29.647Z,13.70
2023-03-13T08:43:05.470Z,14.53
2023-03-13T08:45:36.733Z,12.37
2023-03-13T08:48:12.926Z,12.20
2023-03-13T08:50:50.000Z,12.73
2023-03-13T08:53:23.917Z,13.00
2023-03-13T08:56:01.877Z,14.63
2023-03-13T08:58:43.806Z,12.47
2023-03-13T09:01:19.024Z,12.73
2023-03-13T09:03:51.352Z,13.57
2023-03-13T09:06:22.497Z,12.37
2023-03-13T09:08:52.773Z,14.90
2023-03-13T09:11:22.879Z,11.73
2023-03-13T09:13:52.837Z,13.50
2023-03-13T09:16:23.106Z,11.27
2023-03-13T09:18:53.137Z,14.30
2023-03-13T09:21:23.586Z,12.60
2023-03-13T09:23:54.156Z,15.33
2023-03-13T09:26:23.752Z,12.10
2023-03-13T09:28:52.741Z,14.03
2023-03-13T09:31:23.343Z,12.17
2023-03-13T09:33:52.840Z,14.53
2023-03-13T09:36:23.021Z,12.90
2023-03-13T09:38:54.164Z,12.40
2023-03-13T09:41:27.330Z,12.23
2023-03-13T09:44:03.161Z,14.20
2023-03-13T09:46:40.940Z,12.50
2023-03-13T09:49:22.261Z,12.73
2023-03-13T09:51:55.058Z,11.57
2023-03-13T09:54:29.081Z,13.63
2023-03-13T09:57:01.172Z,14.63
2023-03-13T09:59:38.799Z,13.23
2023-03-13T10:02:22.903Z,12.63
2023-03-13T10:04:55.910Z,15.80
2023-03-13T10:07:24.749Z,12.07
2023-03-13T10:09:54.862Z,15.10
2023-03-13T10:12:28.803Z,12.50
2023-03-13T10:15:18.404Z,12.87
2023-03-13T10:17:47.257Z,14.30
2023-03-13T10:20:24.201Z,12.97
2023-03-13T10:22:58.532Z,15.33
2023-03-13T10:25:33.889Z,12.57
2023-03-13T10:28:06.010Z,12.00
2023-03-13T10:30:36.849Z,13.97
2023-03-13T10:33:21.404Z,13.60
2023-03-13T10:36:02.272Z,16.20
2023-03-13T10:38:34.026Z,14.27
2023-03-13T10:41:11.878Z,13.60
2023-03-13T10:43:52.525Z,13.37
2023-03-13T10:46:29.354Z,15.07
2023-03-13T10:49:01.349Z,15.27
2023-03-13T10:51:37.299Z,13.77
2023-03-13T10:54:16.712Z,16.80
2023-03-13T10:56:46.845Z,15.63
2023-03-13T10:59:25.802Z,16.83
2023-03-13T11:01:59.682Z,17.13
2023-03-13T11:04:32.936Z,14.43
2023-03-13T11:07:04.946Z,17.67
2023-03-13T11:09:33.924Z,14.23
2023-03-13T11:12:13.067Z,15.80
2023-03-13T11:14:42.782Z,14.63
2023-03-13T11:17:22.680Z,16.23
2023-03-13T11:19:59.587Z,15.23
2023-03-13T11:22:41.762Z,14.23
2023-03-13T11:25:22.333Z,14.00
2023-03-13T11:28:01.310Z,17.77
2023-03-13T11:30:46.770Z,13.53
2023-03-13T11:33:28.797Z,14.03
2023-03-13T11:36:03.480Z,13.63
2023-03-13T11:38:36.788Z,14.97
2023-03-13T11:41:17.300Z,16.07
2023-03-13T11:44:12.435Z,15.73
2023-03-13T11:46:54.790Z,13.47
2023-03-13T11:49:45.984Z,13.30
2023-03-13T11:52:35.377Z,15.70
2023-03-13T11:55:21.952Z,15.67
2023-03-13T11:58:00.798Z,14.47
2023-03-13T12:00:40.323Z,14.37
2023-03-13T12:03:17.793Z,15.73
2023-03-13T12:05:51.748Z,15.70
2023-03-13T12:08:28.567Z,14.67
2023-03-13T12:11:07.711Z,17.13
2023-03-13T12:13:40.262Z,14.67
2023-03-13T12:16:16.890Z,17.10
2023-03-13T12:18:49.919Z,15.17
2023-03-13T12:21:26.979Z,13.83
2023-03-13T12:24:06.270Z,15.40
2023-03-13T12:26:41.621Z,15.07
2023-03-13T12:29:16.510Z,15.47
2023-03-13T12:31:53.538Z,15.13
2023-03-13T12:34:30.330Z,14.13
2023-03-13T12:37:08.542Z,14.20
2023-03-13T12:39:43.870Z,14.27
2023-03-13T12:42:24.753Z,15.83
2023-03-13T12:44:57.003Z,17.60
2023-03-13T12:47:33.938Z,13.93
2023-03-13T12:50:34.066Z,18.27
2023-03-13T12:53:19.048Z,16.03
2023-03-13T12:56:05.781Z,15.10
2023-03-13T12:58:48.898Z,13.77
2023-03-13T13:01:32.989Z,14.23
2023-03-13T13:04:07.132Z,15.87
2023-03-13T13:07:01.333Z,15.20
2023-03-13T13:09:31.868Z,14.97
2023-03-13T13:12:04.438Z,15.17
2023-03-13T13:15:05.262Z,14.43
2023-03-13T13:18:14.154Z,15.47
2023-03-13T13:21:33.583Z,15.13
2023-03-13T13:24:43.411Z,15.73
2023-03-13T13:27:46.931Z,17.20
2023-03-13T13:30:35.577Z,14.07
2023-03-13T13:33:44.300Z,16.10
2023-03-13T13:36:43.201Z,15.87
2023-03-13T13:39:40.744Z,16.73
2023-03-13T13:42:50.535Z,16.23
2023-03-13T13:45:39.044Z,15.70
2023-03-13T13:48:32.826Z,15.97
2023-03-13T13:51:31.968Z,18.37
2023-03-13T13:54:04.332Z,17.37
2023-03-13T13:56:42.477Z,15.17
2023-03-13T13:59:33.096Z,16.80
2023-03-13T14:02:28.136Z,18.20
2023-03-13T14:05:06.207Z,17.10
2023-03-13T14:07:52.978Z,15.53
2023-03-13T14:10:34.926Z,14.57
2023-03-13T14:13:16.446Z,17.60
2023-03-13T14:15:47.352Z,16.53
2023-03-13T14:18:22.986Z,15.20
2023-03-13T14:21:02.527Z,15.47
2023-03-13T14:23:45.165Z,15.57
2023-03-13T14:26:18.039Z,16.97
2023-03-13T14:28:50.225Z,16.63
2023-03-13T14:31:28.620Z,16.27
2023-03-13T14:34:02.756Z,16.90
2023-03-13T14:36:32.364Z,16.70
2023-03-13T14:39:01.945Z,18.13
2023-03-13T14:41:33.622Z,16.57
2023-03-13T14:44:13.520Z,17.50
2023-03-13T14:46:59.664Z,16.83
2023-03-13T14:49:34.885Z,15.57
2023-03-13T14:52:08.972Z,17.43
2023-03-13T14:54:53.058Z,16.87
2023-03-13T14:57:26.895Z,16.13
2023-03-13T15:00:29.851Z,15.37
2023-03-13T15:03:14.318Z,16.47
2023-03-13T15:05:43.731Z,15.83
2023-03-13T15:08:16.694Z,17.23
2023-03-13T15:10:48.791Z,17.37
2023-03-13T15:13:41.215Z,16.27
2023-03-13T15:16:16.754Z,17.53
2023-03-13T15:18:48.093Z,16.77
2023-03-13T15:21:26.372Z,15.70
2023-03-13T15:24:00.313Z,16.70
2023-03-13T15:26:30.396Z,16.73
2023-03-13T15:29:00.995Z,16.57
2023-03-13T15:31:35.233Z,15.93
2023-03-13T15:34:04.943Z,18.87
2023-03-13T15:36:35.479Z,17.53
2023-03-13T15:39:05.481Z,19.83
2023-03-13T15:41:34.330Z,15.40
2023-03-13T15:44:03.064Z,16.97
2023-03-13T15:46:34.116Z,14.90
2023-03-13T15:49:03.775Z,17.10
2023-03-13T15:51:33.519Z,15.93
2023-03-13T15:54:02.350Z,17.53
2023-03-13T15:56:35.565Z,15.87
2023-03-13T15:59:11.785Z,15.90
2023-03-13T16:01:42.332Z,15.93
2023-03-13T16:04:12.318Z,16.93
2023-03-13T16:06:41.148Z,15.57
2023-03-13T16:09:09.997Z,17.40
2023-03-13T16:11:39.074Z,14.90
2023-03-13T16:14:07.791Z,15.57
2023-03-13T16:16:37.918Z,14.43
2023-03-13T16:19:10.458Z,16.73
2023-03-13T16:21:43.189Z,15.73
2023-03-13T16:24:12.099Z,18.63
2023-03-13T16:26:40.815Z,15.77
2023-03-13T16:29:12.913Z,16.43
2023-03-13T16:31:41.813Z,15.17
2023-03-13T16:34:14.795Z,16.93
2023-03-13T16:36:43.912Z,14.47
2023-03-13T16:39:16.355Z,16.73
2023-03-13T16:41:45.399Z,14.37
2023-03-13T16:44:14.405Z,14.60
2023-03-13T16:46:59.228Z,14.60
2023-03-13T16:49:34.745Z,13.63
2023-03-13T16:52:04.159Z,16.63
2023-03-13T16:54:32.908Z,14.00
2023-03-13T16:57:04.423Z,16.13
2023-03-13T16:59:35.298Z,15.33
2023-03-13T17:02:03.935Z,14.87
2023-03-13T17:04:35.560Z,13.77
2023-03-13T17:07:04.861Z,15.93
2023-03-13T17:09:33.593Z,15.00
2023-03-13T17:12:02.413Z,17.03
2023-03-13T17:14:32.870Z,15.33
2023-03-13T17:17:01.840Z,14.53
2023-03-13T17:19:31.187Z,14.47
2023-03-13T17:22:01.994Z,14.47
2023-03-13T17:24:30.796Z,13.53
2023-03-13T17:26:59.990Z,13.33
2023-03-13T17:29:31.748Z,12.93
2023-03-13T17:32:03.779Z,12.93
2023-03-13T17:34:33.153Z,13.73
2023-03-13T17:37:06.186Z,13.13
2023-03-13T17:39:34.866Z,14.53
2023-03-13T17:42:05.591Z,12.80
2023-03-13T17:44:34.503Z,13.43
2023-03-13T17:47:09.278Z,12.87
2023-03-13T17:49:37.971Z,13.27
2023-03-13T17:52:08.444Z,13.30
2023-03-13T17:54:37.313Z,12.57
2023-03-13T17:57:14.562Z,14.20
2023-03-13T17:59:46.030Z,14.60
2023-03-13T18:02:16.335Z,15.70
2023-03-13T18:04:45.279Z,13.87
2023-03-13T18:07:24.694Z,15.80
2023-03-13T18:09:53.378Z,12.17
2023-03-13T18:12:22.524Z,13.47
2023-03-13T18:14:51.304Z,12.20
2023-03-13T18:17:22.898Z,12.10
2023-03-13T18:19:52.145Z,13.20
2023-03-13T18:22:22.659Z,11.30
2023-03-13T18:24:51.600Z,14.20
2023-03-13T18:27:22.327Z,11.63
2023-03-13T18:29:51.372Z,11.90
2023-03-13T18:32:20.783Z,13.13
2023-03-13T18:34:50.882Z,12.70
2023-03-13T18:37:29.431Z,11.47
2023-03-13T18:39:58.765Z,12.93
2023-03-13T18:42:28.265Z,11.17
2023-03-13T18:44:57.581Z,12.33
2023-03-13T18:47:36.387Z,12.87
2023-03-13T18:50:21.239Z,12.83
2023-03-13T18:53:03.642Z,13.10
2023-03-13T18:55:37.213Z,13.77
2023-03-13T18:58:12.039Z,12.60
2023-03-13T19:00:53.707Z,12.43
2023-03-13T19:03:23.258Z,13.63
2023-03-13T19:06:00.384Z,12.07
2023-03-13T19:08:35.560Z,11.87
2023-03-13T19:11:13.080Z,12.43
2023-03-13T19:13:52.216Z,11.57
2023-03-13T19:16:29.821Z,14.87
2023-03-13T19:18:59.846Z,12.27
2023-03-13T19:21:34.965Z,12.60
2023-03-13T19:24:15.112Z,14.80
2023-03-13T19:26:59.823Z,13.17
2023-03-13T19:29:41.507Z,12.90
2023-03-13T19:32:20.168Z,12.23
2023-03-13T19:34:58.854Z,12.73
2023-03-13T19:37:28.628Z,14.17
2023-03-13T19:40:05.799Z,14.07
2023-03-13T19:42:39.015Z,12.43
2023-03-13T19:45:13.898Z,13.20
2023-03-13T19:47:50.726Z,13.77
2023-03-13T19:50:27.783Z,13.57
2023-03-13T19:53:02.851Z,11.70
2023-03-13T19:55:38.167Z,13.33
2023-03-13T19:58:10.759Z,12.80
2023-03-13T20:00:42.280Z,11.87
2023-03-13T20:03:17.321Z,13.00
2023-03-13T20:05:53.359Z,13.10
2023-03-13T20:08:25.232Z,11.47
2023-03-13T20:11:08.050Z,11.93
2023-03-13T20:13:45.548Z,12.90
2023-03-13T20:16:35.065Z,12.60
2023-03-13T20:19:29.623Z,12.27
2023-03-13T20:22:05.169Z,13.47
2023-03-13T20:24:38.978Z,13.77
2023-03-13T20:27:22.543Z,12.07
2023-03-13T20:29:53.532Z,11.07
2023-03-13T20:32:28.964Z,14.30
2023-03-13T20:35:01.283Z,12.53
2023-03-13T20:37:42.368Z,14.93
2023-03-13T20:40:14.437Z,11.10
2023-03-13T20:42:53.457Z,13.17
2023-03-13T20:45:24.630Z,12.77
2023-03-13T20:48:05.980Z,12.47
2023-03-13T20:50:41.417Z,11.63
2023-03-13T20:53:20.816Z,11.13
2023-03-13T20:56:05.291Z,11.33
2023-03-13T20:58:42.777Z,12.60
2023-03-13T21:01:33.744Z,11.07
2023-03-13T21:04:03.692Z,12.37
2023-03-13T21:06:44.604Z,13.47
2023-03-13T21:09:24.175Z,12.40
2023-03-13T21:11:55.048Z,11.80
2023-03-13T21:14:42.605Z,15.07
2023-03-13T21:17:17.952Z,12.37
2023-03-13T21:19:52.911Z,12.70
2023-03-13T21:22:25.865Z,13.30
2023-03-13T21:25:33.268Z,12.17
2023-03-13T21:28:22.039Z,11.47
2023-03-13T21:30:59.853Z,11.23
2023-03-13T21:36:31.785Z,12.27
2023-03-13T21:39:12.247Z,12.10
2023-03-13T21:41:49.127Z,12.53
2023-03-13T21:44:35.501Z,11.23
2023-03-13T21:47:09.682Z,12.50
2023-03-13T21:49:41.637Z,12.40
2023-03-13T21:52:19.948Z,12.10
2023-03-13T21:54:57.986Z,11.50
2023-03-13T21:57:45.919Z,12.23
2023-03-13T22:00:20.907Z,12.67
2023-03-13T22:03:10.097Z,12.47
2023-03-13T22:05:46.895Z,11.73
2023-03-13T22:08:21.140Z,12.37
2023-03-13T22:10:52.272Z,16.33
2023-03-13T22:13:38.391Z,13.20
2023-03-13T22:16:11.854Z,15.70
2023-03-13T22:18:46.208Z,12.37
2023-03-13T22:21:22.287Z,13.10
2023-03-13T22:23:52.111Z,12.60
2023-03-13T22:26:28.357Z,13.23
2023-03-13T22:29:04.401Z,11.90
2023-03-13T22:31:36.141Z,16.47
2023-03-13T22:34:12.485Z,12.70
2023-03-13T22:36:45.736Z,12.73
2023-03-13T22:39:19.019Z,13.53
2023-03-13T22:41:50.902Z,13.20
2023-03-13T22:44:21.835Z,13.47
2023-03-13T22:46:50.866Z,12.20
2023-03-13T22:49:31.991Z,13.63
2023-03-13T22:52:09.049Z,12.77
2023-03-13T22:54:41.550Z,13.40
2023-03-13T22:57:15.830Z,13.47
2023-03-13T22:59:53.809Z,13.17
2023-03-13T23:02:25.995Z,14.83
2023-03-13T23:05:18.765Z,12.87
2023-03-13T23:07:52.792Z,13.67
2023-03-13T23:10:30.622Z,15.13
2023-03-13T23:13:02.869Z,12.17
2023-03-13T23:15:42.997Z,14.00
2023-03-13T23:18:16.932Z,12.50
2023-03-13T23:20:47.418Z,12.60
2023-03-13T23:23:31.951Z,13.40
2023-03-13T23:26:01.208Z,14.23
2023-03-13T23:28:35.367Z,14.70
2023-03-13T23:31:15.492Z,13.93
2023-03-13T23:33:51.061Z,13.43
2023-03-13T23:36:22.475Z,14.10
2023-03-13T23:38:56.280Z,13.30
2023-03-13T23:41:28.328Z,12.53
2023-03-13T23:44:02.746Z,13.93
2023-03-13T23:46:37.903Z,13.90
2023-03-13T23:49:12.535Z,12.63
2023-03-13T23:51:47.958Z,11.73
2023-03-13T23:54:23.687Z,13.03
2023-03-13T23:56:57.205Z,11.83
2023-03-13T23:59:34.482Z,12.50
